Back to home pageP2-PXE 737-800 Landed short of runway

Home > Accident News > P2-PXE

Contents

Illustrated technical information covering Vol 2 Over 800 multi-choice systems questions Study notes and technical information Close up photos of internal and external components A compilation of links to major 737 news stories with a downloadable archive Illustrated history and description of all variants of 737 Detailed tech specs of every series of 737 Databases and reports of all the major 737 accidents & incidents General flightdeck views of each generation of 737's Description & news reports of Advanced Blended Winglets Press reports of orders and deliveries A collection of my favourite photographs that I have taken of or from the 737 Details about 737 production methods A compilation of links to other sites with useful 737 content History and Development of the Boeing 737 - MAX A quick concise overview of the pages on this site

spacer

28 Sep 2018 - P2-PXE 737-800 Landed short of runway at Chuuk, Micronesia

On 27 September 2018, an Air Niugini 737-800, P2-PXE (33024/1688), was approaching Chuuk (PTKK), Micronesia, runway 04 in low cloud and rain showers. The aircraft landed in a lagoon 150m short of the runway. The aircraft remained afloat but one passenger died during the rescue.

Flight ANG73 was enroute from Pohnpei to Port Moresby via Chuuk with 35 passengers and 12 crew on board.

PTKK 282355Z 04007KT 3SM SHRA BKN000 OVC008CB 26/25 A2973 RMK CB ALQDS MOV SW SLP071 60186 8/3// T02610250 10261 20250 52015

PTKK 280002Z VRB05KT 12SM -SHRA SCT010CB BKN110 OVC280 26/25 A2973 RMK CB ALQDS

https://youtu.be/kc_fVw2gHkg

 

See more details about the book

All of the information, photographs & schematics from this website and much more is now available in a 374 page printed book or in electronic format.

*** Updated 10 Feb 2018 ***

The 737 Tech Site on Facebook The 737 Tech Site on Twitter The 737 Tech Site on Instagram

Footer block

This site has had visitors to date.